Time;durP1;ratioP1;P1;durP2;ratioP2;P2;SDS_P1;SDS_P2;PMS_P1;PMS_P2;Temp;Humidity;BMP_temperature;BMP_pressure;BME280_temperature;BME280_humidity;BME280_pressure;Samples;Min_cycle;Max_cycle;Signal;HPM_P1;HPM_P2
2022/05/31 00:00:26;;;;;;;4.03;2.70;;;;;;;;;;5055680;28;20229;-83
2022/05/31 00:02:56;;;;;;;2.50;2.40;;;;;;;;;;5070038;28;20221;-81
2022/05/31 00:05:23;;;;;;;2.50;2.30;;;;;;;;;;5076713;28;20240;-80
2022/05/31 00:07:50;;;;;;;2.40;2.30;;;;;;;;;;5076312;28;20232;-81
2022/05/31 00:10:17;;;;;;;5.17;2.90;;;;;;;;;;5075435;28;20236;-81
2022/05/31 00:12:45;;;;;;;2.97;2.77;;;;;;;;;;5076748;28;20230;-81
2022/05/31 00:15:14;;;;;;;2.97;2.77;;;;;;;;;;5076293;28;20233;-81
2022/05/31 00:17:41;;;;;;;2.80;2.60;;;;;;;;;;5076949;28;20197;-81
2022/05/31 00:20:11;;;;;;;3.50;2.73;;;;;;;;;;5076617;28;20725;-81
2022/05/31 00:22:40;;;;;;;2.77;2.57;;;;;;;;;;5076605;28;20225;-81
2022/05/31 00:25:07;;;;;;;3.43;2.50;;;;;;;;;;5066710;28;20596;-81
2022/05/31 00:27:34;;;;;;;2.80;2.60;;;;;;;;;;5075746;28;20228;-81
2022/05/31 00:30:01;;;;;;;3.03;2.70;;;;;;;;;;5074987;28;20222;-81
2022/05/31 00:32:31;;;;;;;5.50;2.60;;;;;;;;;;5076181;28;20608;-80
2022/05/31 00:34:58;;;;;;;2.80;2.60;;;;;;;;;;5074807;28;20209;-82
2022/05/31 00:37:27;;;;;;;2.77;2.57;;;;;;;;;;5075532;28;20212;-81
2022/05/31 00:39:54;;;;;;;3.67;2.60;;;;;;;;;;5075130;28;20603;-81
2022/05/31 00:42:23;;;;;;;2.97;2.73;;;;;;;;;;5076112;28;20217;-81
2022/05/31 00:44:50;;;;;;;3.00;2.70;;;;;;;;;;5074704;28;20216;-80
2022/05/31 00:47:19;;;;;;;2.80;2.60;;;;;;;;;;5075257;28;20211;-81
2022/05/31 00:49:49;;;;;;;2.87;2.67;;;;;;;;;;5075339;28;20205;-81
2022/05/31 00:52:19;;;;;;;4.97;2.87;;;;;;;;;;5075774;28;20272;-82
2022/05/31 00:54:50;;;;;;;3.27;2.50;;;;;;;;;;5075174;28;20189;-81
2022/05/31 00:57:17;;;;;;;2.57;2.37;;;;;;;;;;5076260;28;20194;-81
2022/05/31 00:59:46;;;;;;;3.90;2.90;;;;;;;;;;5075511;28;20216;-82
2022/05/31 01:02:15;;;;;;;7.90;3.17;;;;;;;;;;5076073;28;20226;-81
2022/05/31 01:04:43;;;;;;;4.47;2.67;;;;;;;;;;5075734;28;20209;-81
2022/05/31 01:07:10;;;;;;;3.10;2.80;;;;;;;;;;5067912;28;20229;-81
2022/05/31 01:09:38;;;;;;;2.70;2.40;;;;;;;;;;5057625;28;20215;-81
2022/05/31 01:12:07;;;;;;;5.20;2.70;;;;;;;;;;5055290;28;20253;-81
2022/05/31 01:14:35;;;;;;;3.10;2.80;;;;;;;;;;5054820;28;20246;-81
2022/05/31 01:17:03;;;;;;;3.00;2.80;;;;;;;;;;5054237;28;20265;-81
2022/05/31 01:22:16;;;;;;;3.00;2.80;;;;;;;;;;5054562;28;20316;-80
2022/05/31 01:24:50;;;;;;;2.80;2.60;;;;;;;;;;5054769;28;20210;-81
2022/05/31 01:27:23;;;;;;;2.70;2.50;;;;;;;;;;5062149;28;20198;-80
2022/05/31 01:29:51;;;;;;;5.00;2.87;;;;;;;;;;5056691;28;20213;-81
2022/05/31 01:32:18;;;;;;;5.20;3.23;;;;;;;;;;5056543;28;20214;-82
2022/05/31 01:34:52;;;;;;;2.70;2.50;;;;;;;;;;5055957;28;20210;-82
2022/05/31 01:37:21;;;;;;;5.10;2.60;;;;;;;;;;5055751;28;20279;-81
2022/05/31 01:39:49;;;;;;;3.10;2.90;;;;;;;;;;5055598;28;20557;-82
2022/05/31 01:42:18;;;;;;;2.87;2.67;;;;;;;;;;5058014;28;20237;-83
2022/05/31 01:44:48;;;;;;;3.87;2.70;;;;;;;;;;5061442;28;20617;-82
2022/05/31 01:47:15;;;;;;;2.80;2.60;;;;;;;;;;5052235;28;20210;-81
2022/05/31 01:49:43;;;;;;;2.90;2.63;;;;;;;;;;5051600;28;20230;-82
2022/05/31 01:52:12;;;;;;;3.10;2.90;;;;;;;;;;5051886;28;20222;-82
2022/05/31 01:54:41;;;;;;;2.70;2.50;;;;;;;;;;5051955;28;20217;-82
2022/05/31 01:57:10;;;;;;;3.07;2.60;;;;;;;;;;5052248;28;20229;-82
2022/05/31 01:59:38;;;;;;;2.90;2.50;;;;;;;;;;5052239;28;20205;-82
2022/05/31 02:02:07;;;;;;;3.07;2.87;;;;;;;;;;5054549;28;20240;-82
2022/05/31 02:04:34;;;;;;;2.60;2.40;;;;;;;;;;5056405;28;20233;-81
2022/05/31 02:07:11;;;;;;;2.70;2.50;;;;;;;;;;5056430;28;20246;-81
2022/05/31 02:09:41;;;;;;;3.43;2.77;;;;;;;;;;5056871;28;20247;-82
2022/05/31 02:12:10;;;;;;;2.57;2.40;;;;;;;;;;5056524;28;20225;-83
2022/05/31 02:14:37;;;;;;;2.90;2.70;;;;;;;;;;5056948;28;20297;-82
2022/05/31 02:17:04;;;;;;;2.70;2.50;;;;;;;;;;5056170;28;20237;-82
2022/05/31 02:19:32;;;;;;;3.73;2.63;;;;;;;;;;5056530;28;20197;-82
2022/05/31 02:22:00;;;;;;;8.07;2.80;;;;;;;;;;5056310;28;20241;-82
2022/05/31 02:24:27;;;;;;;3.33;2.70;;;;;;;;;;5057052;28;20210;-81
2022/05/31 02:26:56;;;;;;;3.00;2.80;;;;;;;;;;5056926;28;20244;-82
2022/05/31 02:29:24;;;;;;;2.90;2.60;;;;;;;;;;5056632;28;20226;-82
2022/05/31 02:31:52;;;;;;;3.20;2.93;;;;;;;;;;5056966;28;20233;-82
2022/05/31 02:34:20;;;;;;;2.60;2.40;;;;;;;;;;5057797;28;20206;-82
2022/05/31 02:36:48;;;;;;;3.27;2.47;;;;;;;;;;5057419;28;20233;-82
2022/05/31 02:39:15;;;;;;;2.90;2.70;;;;;;;;;;5057518;28;20256;-82
2022/05/31 02:41:42;;;;;;;2.40;2.30;;;;;;;;;;5056507;28;20236;-82
2022/05/31 02:44:11;;;;;;;2.97;2.70;;;;;;;;;;5057231;28;20666;-82
2022/05/31 02:46:39;;;;;;;3.00;2.80;;;;;;;;;;5056813;28;20233;-82
2022/05/31 02:49:06;;;;;;;3.13;2.77;;;;;;;;;;5057670;28;20233;-82
2022/05/31 02:51:36;;;;;;;2.60;2.40;;;;;;;;;;5056883;28;20608;-82
2022/05/31 02:54:03;;;;;;;3.03;2.83;;;;;;;;;;5056160;28;20300;-82
2022/05/31 02:56:30;;;;;;;3.00;2.80;;;;;;;;;;5056500;28;20230;-81
2022/05/31 02:59:03;;;;;;;2.93;2.73;;;;;;;;;;5056985;28;20213;-81
2022/05/31 03:01:33;;;;;;;2.80;2.60;;;;;;;;;;5056130;28;20580;-82
2022/05/31 03:04:00;;;;;;;2.80;2.60;;;;;;;;;;5056563;28;20721;-81
2022/05/31 03:06:27;;;;;;;2.60;2.40;;;;;;;;;;5056334;28;20244;-82
2022/05/31 03:08:54;;;;;;;3.17;2.97;;;;;;;;;;5057410;28;20248;-81
2022/05/31 03:11:23;;;;;;;3.03;2.83;;;;;;;;;;5056525;28;20779;-82
2022/05/31 03:13:52;;;;;;;3.27;3.00;;;;;;;;;;5056321;28;20246;-82
2022/05/31 03:16:20;;;;;;;2.73;2.53;;;;;;;;;;5056425;28;20709;-82
2022/05/31 03:18:52;;;;;;;3.27;2.93;;;;;;;;;;5057286;28;20693;-82
2022/05/31 03:21:21;;;;;;;6.37;2.90;;;;;;;;;;5055930;28;20234;-82
2022/05/31 03:23:49;;;;;;;3.00;2.80;;;;;;;;;;5056253;28;20222;-82
2022/05/31 03:26:19;;;;;;;4.37;2.73;;;;;;;;;;5056121;28;20238;-81
2022/05/31 03:28:46;;;;;;;3.10;2.90;;;;;;;;;;5056593;28;20233;-81
2022/05/31 03:31:13;;;;;;;4.63;2.97;;;;;;;;;;5056941;28;20336;-83
2022/05/31 03:33:40;;;;;;;7.17;3.03;;;;;;;;;;5057476;28;20232;-82
2022/05/31 03:36:09;;;;;;;3.50;3.20;;;;;;;;;;5057105;28;20233;-82
2022/05/31 03:38:36;;;;;;;3.10;2.90;;;;;;;;;;5057823;28;20230;-82
2022/05/31 03:41:03;;;;;;;3.03;2.77;;;;;;;;;;5057093;28;20241;-82
2022/05/31 03:43:31;;;;;;;4.97;2.63;;;;;;;;;;5057338;28;20256;-82
2022/05/31 03:45:59;;;;;;;5.90;3.03;;;;;;;;;;5057957;28;20265;-82
2022/05/31 03:48:27;;;;;;;3.27;2.97;;;;;;;;;;5057819;28;20741;-82
2022/05/31 03:51:01;;;;;;;7.20;3.40;;;;;;;;;;5057052;28;20233;-82
2022/05/31 03:53:29;;;;;;;3.23;2.93;;;;;;;;;;5057382;28;20725;-82
2022/05/31 03:55:56;;;;;;;4.10;3.40;;;;;;;;;;5057274;28;20241;-82
2022/05/31 03:58:24;;;;;;;3.37;3.07;;;;;;;;;;5057619;28;20209;-81
2022/05/31 04:00:51;;;;;;;3.90;3.00;;;;;;;;;;5058912;28;20542;-82
2022/05/31 04:03:18;;;;;;;4.33;2.80;;;;;;;;;;5075502;28;20226;-82
2022/05/31 04:05:46;;;;;;;4.20;3.50;;;;;;;;;;5076113;28;20240;-82
2022/05/31 04:08:13;;;;;;;4.73;2.87;;;;;;;;;;5066786;28;20210;-82
2022/05/31 04:10:42;;;;;;;3.07;2.87;;;;;;;;;;5069866;28;20724;-81
2022/05/31 04:13:09;;;;;;;3.60;2.80;;;;;;;;;;5069113;28;20222;-82
2022/05/31 04:15:36;;;;;;;4.67;3.20;;;;;;;;;;5056238;28;20240;-83
2022/05/31 04:18:05;;;;;;;3.37;3.13;;;;;;;;;;5058683;28;20220;-82
2022/05/31 04:20:33;;;;;;;4.60;3.00;;;;;;;;;;5059351;28;20283;-82
2022/05/31 04:25:42;;;;;;;4.53;3.20;;;;;;;;;;5053623;28;20229;-81
2022/05/31 04:28:10;;;;;;;3.37;3.10;;;;;;;;;;5055447;28;20213;-81
2022/05/31 04:30:37;;;;;;;3.87;3.50;;;;;;;;;;5062005;28;21809;-80
2022/05/31 04:33:04;;;;;;;3.50;3.20;;;;;;;;;;5054582;28;20228;-80
2022/05/31 04:35:31;;;;;;;3.83;3.10;;;;;;;;;;5064331;28;20236;-80
2022/05/31 04:37:58;;;;;;;5.50;3.53;;;;;;;;;;5073218;28;20216;-81
2022/05/31 04:40:26;;;;;;;8.93;4.10;;;;;;;;;;5073957;28;20240;-80
2022/05/31 04:42:55;;;;;;;3.93;3.60;;;;;;;;;;5060048;28;20229;-80
2022/05/31 04:45:22;;;;;;;3.30;3.10;;;;;;;;;;5059905;28;20229;-81
2022/05/31 04:47:49;;;;;;;5.30;3.80;;;;;;;;;;5058913;28;20656;-81
2022/05/31 04:50:17;;;;;;;4.10;3.70;;;;;;;;;;5068385;28;20240;-81
2022/05/31 04:52:44;;;;;;;5.10;3.90;;;;;;;;;;5056840;28;20222;-80
2022/05/31 04:55:11;;;;;;;5.40;3.80;;;;;;;;;;5062973;28;20247;-81
2022/05/31 04:57:38;;;;;;;9.30;4.20;;;;;;;;;;5063375;28;20209;-81
2022/05/31 05:00:07;;;;;;;12.07;4.57;;;;;;;;;;5055139;28;20229;-82
2022/05/31 05:02:34;;;;;;;5.00;4.50;;;;;;;;;;5061888;28;20226;-81
2022/05/31 05:05:02;;;;;;;11.03;4.60;;;;;;;;;;5053666;28;20237;-81
2022/05/31 05:07:31;;;;;;;6.73;4.60;;;;;;;;;;5073750;28;20209;-80
2022/05/31 05:09:58;;;;;;;5.33;4.70;;;;;;;;;;5073559;28;20222;-81
2022/05/31 05:12:25;;;;;;;6.93;4.43;;;;;;;;;;5074391;28;20229;-82
2022/05/31 05:14:52;;;;;;;8.23;5.17;;;;;;;;;;5074320;28;20217;-83
2022/05/31 05:17:20;;;;;;;7.73;5.50;;;;;;;;;;5068116;28;20212;-82
2022/05/31 05:19:47;;;;;;;5.97;5.37;;;;;;;;;;5070079;28;20204;-81
2022/05/31 05:22:14;;;;;;;6.97;5.00;;;;;;;;;;5073588;28;20229;-81
2022/05/31 05:24:41;;;;;;;7.87;4.77;;;;;;;;;;5073550;28;20216;-80
2022/05/31 05:27:09;;;;;;;8.63;5.10;;;;;;;;;;5073177;28;20263;-80
2022/05/31 05:32:22;;;;;;;6.20;5.60;;;;;;;;;;5074398;28;20306;-80
2022/05/31 05:34:52;;;;;;;6.47;5.67;;;;;;;;;;5073243;28;20216;-81
2022/05/31 05:37:19;;;;;;;10.17;5.50;;;;;;;;;;5073972;28;20291;-81
2022/05/31 05:39:46;;;;;;;6.60;4.73;;;;;;;;;;5073411;28;20198;-80
2022/05/31 05:42:13;;;;;;;5.37;4.83;;;;;;;;;;5074684;28;20233;-81
2022/05/31 05:44:41;;;;;;;5.70;4.50;;;;;;;;;;5073626;28;20212;-81
2022/05/31 05:47:08;;;;;;;4.87;4.47;;;;;;;;;;5074420;28;20189;-82
2022/05/31 05:49:37;;;;;;;6.30;4.63;;;;;;;;;;5073997;28;20276;-82
2022/05/31 05:52:06;;;;;;;5.30;4.80;;;;;;;;;;5096237;22;20316;-84
2022/05/31 05:54:33;;;;;;;5.13;4.20;;;;;;;;;;5059702;28;20214;-83
2022/05/31 05:57:00;;;;;;;4.80;4.20;;;;;;;;;;5067319;28;20239;-85
2022/05/31 05:59:27;;;;;;;4.60;4.10;;;;;;;;;;5058299;28;20205;-83
2022/05/31 06:01:57;;;;;;;4.20;3.80;;;;;;;;;;5068486;28;20232;-84
2022/05/31 06:04:27;;;;;;;5.47;3.80;;;;;;;;;;5041899;28;20221;-84
2022/05/31 06:06:59;;;;;;;4.50;4.10;;;;;;;;;;5038096;28;20709;-84
2022/05/31 06:09:26;;;;;;;5.67;3.63;;;;;;;;;;5049108;28;20225;-84
2022/05/31 06:11:56;;;;;;;5.80;4.00;;;;;;;;;;5050183;28;20312;-82
2022/05/31 06:14:25;;;;;;;4.87;3.50;;;;;;;;;;5051563;28;20612;-85
2022/05/31 06:16:54;;;;;;;4.00;3.60;;;;;;;;;;5042845;28;20233;-83
2022/05/31 06:19:23;;;;;;;3.80;3.50;;;;;;;;;;5031941;28;20662;-85
2022/05/31 06:21:52;;;;;;;3.40;3.10;;;;;;;;;;5037798;28;20284;-82
2022/05/31 06:24:23;;;;;;;3.00;2.80;;;;;;;;;;5040832;28;20222;-85
2022/05/31 06:26:50;;;;;;;3.27;2.97;;;;;;;;;;5045208;28;20261;-84
2022/05/31 06:29:17;;;;;;;4.37;2.90;;;;;;;;;;5053038;28;20237;-85
2022/05/31 06:31:44;;;;;;;5.40;2.70;;;;;;;;;;5053043;28;20702;-84
2022/05/31 06:34:12;;;;;;;2.50;2.40;;;;;;;;;;5052753;28;20226;-84
2022/05/31 06:36:40;;;;;;;3.80;2.70;;;;;;;;;;5050849;28;20724;-84
2022/05/31 06:39:07;;;;;;;2.80;2.60;;;;;;;;;;5055649;28;20619;-85
2022/05/31 06:41:36;;;;;;;2.80;2.60;;;;;;;;;;5054137;28;20234;-83
2022/05/31 06:44:03;;;;;;;2.80;2.60;;;;;;;;;;5053058;28;20233;-85
2022/05/31 06:46:31;;;;;;;2.83;2.37;;;;;;;;;;5050530;28;20544;-85
2022/05/31 06:48:58;;;;;;;2.77;2.57;;;;;;;;;;5053865;28;20313;-85
2022/05/31 06:56:54;;;;;;;3.23;2.40;;;;;;;;;;5034356;28;20717;-85
2022/05/31 06:59:21;;;;;;;3.27;1.93;;;;;;;;;;5051332;28;20284;-85
2022/05/31 07:01:48;;;;;;;2.93;2.00;;;;;;;;;;5048084;28;20238;-85
2022/05/31 07:04:15;;;;;;;2.67;2.07;;;;;;;;;;5046820;28;21053;-83
2022/05/31 07:06:43;;;;;;;3.90;2.23;;;;;;;;;;5050176;28;20226;-83
2022/05/31 07:09:12;;;;;;;3.47;2.10;;;;;;;;;;5053812;28;20209;-83
2022/05/31 07:11:39;;;;;;;2.23;2.07;;;;;;;;;;5053312;28;20265;-82
2022/05/31 07:14:08;;;;;;;3.60;1.83;;;;;;;;;;5073947;28;20244;-81
2022/05/31 07:16:35;;;;;;;2.93;2.30;;;;;;;;;;5073167;28;20259;-83
2022/05/31 07:19:03;;;;;;;2.23;2.03;;;;;;;;;;5073640;28;20270;-83
2022/05/31 07:21:30;;;;;;;1.70;1.60;;;;;;;;;;5073777;28;20237;-83
2022/05/31 07:23:58;;;;;;;4.97;1.87;;;;;;;;;;5073604;28;20332;-82
2022/05/31 07:26:26;;;;;;;2.30;2.00;;;;;;;;;;5073391;28;20241;-83
2022/05/31 07:28:53;;;;;;;2.00;1.90;;;;;;;;;;5073951;28;20205;-84
2022/05/31 07:31:21;;;;;;;2.33;1.93;;;;;;;;;;5073236;28;20240;-84
2022/05/31 07:33:48;;;;;;;1.80;1.70;;;;;;;;;;5073682;28;20740;-85
2022/05/31 07:36:15;;;;;;;1.90;1.80;;;;;;;;;;5074260;28;20244;-85
2022/05/31 07:38:42;;;;;;;1.90;1.80;;;;;;;;;;5074743;28;20205;-84
2022/05/31 07:41:10;;;;;;;2.20;1.73;;;;;;;;;;5073941;28;20229;-85
2022/05/31 07:43:37;;;;;;;4.20;1.90;;;;;;;;;;5073838;28;20264;-85
2022/05/31 07:46:06;;;;;;;2.07;1.70;;;;;;;;;;5074181;28;20716;-85
2022/05/31 07:48:35;;;;;;;2.47;1.80;;;;;;;;;;5074313;28;20258;-86
2022/05/31 07:51:02;;;;;;;4.07;2.23;;;;;;;;;;5073189;28;20249;-85
2022/05/31 07:53:29;;;;;;;2.23;1.67;;;;;;;;;;5070529;28;20225;-85
2022/05/31 07:56:21;;;;;;;1.50;1.40;;;;;;;;;;5048761;28;20264;-82
2022/05/31 08:01:34;;;;;;;2.37;1.57;;;;;;;;;;5062899;28;20226;-85
2022/05/31 08:04:02;;;;;;;1.55;1.48;;;;;;;;;;5053764;28;20233;-84
2022/05/31 08:06:31;;;;;;;1.50;1.40;;;;;;;;;;5055495;28;20234;-84
2022/05/31 08:08:58;;;;;;;2.22;1.60;;;;;;;;;;5061438;28;20209;-85
2022/05/31 08:11:26;;;;;;;2.08;1.67;;;;;;;;;;5052909;28;20241;-84
2022/05/31 08:13:54;;;;;;;3.15;1.70;;;;;;;;;;5053426;28;20228;-85
2022/05/31 08:16:22;;;;;;;2.47;2.15;;;;;;;;;;5052922;28;20745;-83
2022/05/31 08:18:50;;;;;;;1.52;1.42;;;;;;;;;;5053592;28;20213;-85
2022/05/31 08:21:19;;;;;;;4.10;1.48;;;;;;;;;;5070927;28;20611;-85
2022/05/31 08:23:46;;;;;;;1.90;1.80;;;;;;;;;;5072617;28;20244;-86
2022/05/31 08:26:14;;;;;;;1.50;1.40;;;;;;;;;;5072774;28;20247;-84
2022/05/31 08:28:41;;;;;;;1.98;1.60;;;;;;;;;;5072659;28;20209;-86
2022/05/31 08:31:10;;;;;;;2.30;1.40;;;;;;;;;;5072395;28;20237;-86
2022/05/31 08:33:38;;;;;;;2.20;1.80;;;;;;;;;;5073070;28;20709;-82
2022/05/31 08:36:06;;;;;;;1.70;1.60;;;;;;;;;;5072582;28;20780;-85
2022/05/31 08:38:34;;;;;;;2.35;1.52;;;;;;;;;;5073015;28;20209;-85
2022/05/31 08:41:09;;;;;;;2.95;1.42;;;;;;;;;;5071769;28;20232;-85
2022/05/31 08:43:44;;;;;;;2.50;1.70;;;;;;;;;;5072867;28;20284;-83
2022/05/31 08:46:14;;;;;;;2.25;1.67;;;;;;;;;;5072478;28;20240;-85
2022/05/31 08:48:45;;;;;;;2.67;1.55;;;;;;;;;;5072626;28;20216;-85
2022/05/31 08:57:05;;;;;;;2.72;1.40;;;;;;;;;;4990163;28;20782;-85
2022/05/31 08:59:34;;;;;;;1.67;1.58;;;;;;;;;;4991202;28;20684;-85
2022/05/31 09:02:04;;;;;;;1.83;1.73;;;;;;;;;;5029249;28;20941;-85
2022/05/31 09:04:44;;;;;;;1.40;1.30;;;;;;;;;;5072341;28;20209;-85
2022/05/31 09:07:14;;;;;;;6.65;1.77;;;;;;;;;;5072247;28;20600;-85
2022/05/31 09:09:46;;;;;;;2.08;1.67;;;;;;;;;;5071484;28;20205;-84
2022/05/31 09:12:16;;;;;;;1.65;1.50;;;;;;;;;;5071041;28;20368;-85
2022/05/31 09:14:47;;;;;;;2.90;1.60;;;;;;;;;;5070528;28;20673;-85
2022/05/31 09:17:17;;;;;;;1.90;1.45;;;;;;;;;;5072447;28;20198;-85
2022/05/31 09:19:45;;;;;;;2.28;1.50;;;;;;;;;;5071352;28;20590;-83
2022/05/31 09:22:12;;;;;;;2.33;1.50;;;;;;;;;;5071514;28;20194;-86
2022/05/31 09:24:41;;;;;;;1.50;1.40;;;;;;;;;;5071263;28;20197;-84
2022/05/31 09:27:11;;;;;;;4.43;1.80;;;;;;;;;;5071206;28;20292;-83
2022/05/31 09:29:49;;;;;;;2.30;1.52;;;;;;;;;;5071501;28;20209;-84
2022/05/31 09:32:19;;;;;;;2.10;1.60;;;;;;;;;;5071219;28;20224;-84
2022/05/31 09:34:54;;;;;;;2.03;1.58;;;;;;;;;;5071024;28;20186;-84
2022/05/31 09:37:27;;;;;;;2.15;1.58;;;;;;;;;;5072058;28;20188;-85
2022/05/31 09:40:00;;;;;;;3.65;1.60;;;;;;;;;;5070936;28;20205;-87
2022/05/31 09:42:34;;;;;;;3.30;1.38;;;;;;;;;;5071500;28;20225;-85
2022/05/31 09:45:04;;;;;;;5.35;1.45;;;;;;;;;;5070935;28;20236;-86
2022/05/31 09:47:31;;;;;;;1.55;1.45;;;;;;;;;;5072504;28;20753;-85
2022/05/31 09:49:58;;;;;;;1.65;1.40;;;;;;;;;;5071209;28;20242;-86
2022/05/31 09:52:30;;;;;;;2.53;1.75;;;;;;;;;;5072415;28;20232;-86
2022/05/31 09:57:59;;;;;;;2.20;1.55;;;;;;;;;;5071496;28;20184;-85
2022/05/31 10:00:26;;;;;;;4.25;1.42;;;;;;;;;;5065897;28;20720;-85
2022/05/31 10:03:04;;;;;;;4.55;1.67;;;;;;;;;;5050553;28;20231;-85
2022/05/31 10:05:31;;;;;;;1.77;1.67;;;;;;;;;;5050305;28;20242;-85
2022/05/31 10:07:58;;;;;;;3.42;1.55;;;;;;;;;;5050657;28;20216;-84
2022/05/31 10:10:28;;;;;;;1.40;1.25;;;;;;;;;;5050049;28;20246;-82
2022/05/31 10:12:57;;;;;;;2.65;1.50;;;;;;;;;;5049775;28;20761;-82
2022/05/31 10:15:37;;;;;;;1.63;1.52;;;;;;;;;;5052629;28;20244;-84
2022/05/31 10:18:05;;;;;;;1.60;1.30;;;;;;;;;;5050548;28;20885;-83
2022/05/31 10:20:32;;;;;;;2.05;1.20;;;;;;;;;;5054959;28;20279;-84
2022/05/31 10:23:00;;;;;;;3.00;1.95;;;;;;;;;;5072595;28;20260;-83
2022/05/31 10:25:29;;;;;;;1.50;1.40;;;;;;;;;;5074112;28;20279;-83
2022/05/31 10:27:59;;;;;;;1.80;1.40;;;;;;;;;;5074463;28;20201;-83
2022/05/31 10:30:27;;;;;;;2.40;1.38;;;;;;;;;;5073491;28;20244;-84
2022/05/31 10:32:54;;;;;;;3.78;1.80;;;;;;;;;;5074333;28;20320;-84
2022/05/31 10:35:24;;;;;;;4.45;1.67;;;;;;;;;;5073851;28;20236;-83
2022/05/31 10:37:55;;;;;;;2.10;1.70;;;;;;;;;;5073654;28;20259;-84
2022/05/31 10:40:24;;;;;;;1.95;1.60;;;;;;;;;;5073181;28;20697;-83
2022/05/31 10:42:54;;;;;;;3.90;1.98;;;;;;;;;;5073590;28;20229;-82
2022/05/31 10:45:24;;;;;;;1.70;1.60;;;;;;;;;;5073354;28;20324;-84
2022/05/31 10:47:51;;;;;;;2.80;1.50;;;;;;;;;;5073982;28;20217;-87
2022/05/31 10:50:19;;;;;;;2.92;1.30;;;;;;;;;;5073976;28;20709;-85
2022/05/31 10:52:52;;;;;;;2.25;1.63;;;;;;;;;;5089675;28;20767;-84
2022/05/31 10:55:36;;;;;;;2.40;1.38;;;;;;;;;;5075828;28;20976;-85
2022/05/31 10:58:23;;;;;;;2.90;1.17;;;;;;;;;;5074768;28;20240;-86
2022/05/31 11:00:55;;;;;;;1.60;1.50;;;;;;;;;;5068043;28;20217;-85
2022/05/31 11:03:29;;;;;;;1.83;1.73;;;;;;;;;;5055931;28;20233;-88
2022/05/31 11:06:04;;;;;;;1.55;1.20;;;;;;;;;;5054056;28;20230;-88
2022/05/31 11:11:33;;;;;;;3.65;1.30;;;;;;;;;;5042048;28;20240;-86
2022/05/31 11:14:28;;;;;;;1.73;1.33;;;;;;;;;;5054154;28;20225;-84
2022/05/31 11:17:10;;;;;;;1.88;1.45;;;;;;;;;;5041830;28;20785;-85
2022/05/31 11:19:57;;;;;;;;;;;;;;;;;;;;;
2022/05/31 11:22:36;;;;;;;1.63;1.48;;;;;;;;;;5044541;28;20229;-86
2022/05/31 11:25:27;;;;;;;1.65;1.13;;;;;;;;;;5053185;28;20265;-85
2022/05/31 11:28:07;;;;;;;2.60;1.20;;;;;;;;;;5038482;28;20572;-85
2022/05/31 11:30:38;;;;;;;2.85;1.38;;;;;;;;;;5053312;28;20263;-85
2022/05/31 11:33:28;;;;;;;2.45;1.40;;;;;;;;;;5054108;28;20287;-84
2022/05/31 11:36:01;;;;;;;1.77;1.20;;;;;;;;;;5044802;28;20580;-83
2022/05/31 11:38:38;;;;;;;1.70;1.10;;;;;;;;;;5054334;28;20240;-83
2022/05/31 11:41:20;;;;;;;1.77;1.30;;;;;;;;;;5053922;28;20237;-83
2022/05/31 11:44:05;;;;;;;2.88;1.40;;;;;;;;;;5054382;28;20226;-85
2022/05/31 11:46:47;;;;;;;3.53;1.27;;;;;;;;;;5014095;28;20238;-85
2022/05/31 11:49:23;;;;;;;3.70;1.80;;;;;;;;;;5055247;28;20206;-86
2022/05/31 11:51:58;;;;;;;1.88;1.17;;;;;;;;;;5053240;28;20319;-85
2022/05/31 11:54:30;;;;;;;2.08;1.35;;;;;;;;;;5071525;28;20591;-83
2022/05/31 11:57:02;;;;;;;3.70;1.38;;;;;;;;;;5073187;28;20240;-83
2022/05/31 11:59:31;;;;;;;4.18;1.15;;;;;;;;;;5073819;28;20224;-84
2022/05/31 12:02:02;;;;;;;4.28;1.35;;;;;;;;;;5073147;28;20229;-89
2022/05/31 12:04:35;;;;;;;1.75;1.00;;;;;;;;;;5074450;28;20189;-83
2022/05/31 12:07:04;;;;;;;3.35;1.20;;;;;;;;;;5072869;28;20627;-84
2022/05/31 12:09:35;;;;;;;1.70;1.00;;;;;;;;;;5074112;28;20299;-85
2022/05/31 12:12:04;;;;;;;1.45;1.20;;;;;;;;;;5072930;28;20251;-84
2022/05/31 12:14:32;;;;;;;1.55;1.13;;;;;;;;;;5073192;28;20208;-83
2022/05/31 12:16:59;;;;;;;3.83;1.08;;;;;;;;;;5073950;28;20727;-83
2022/05/31 12:19:31;;;;;;;1.10;1.00;;;;;;;;;;5073699;28;20212;-84
2022/05/31 12:22:03;;;;;;;2.35;1.35;;;;;;;;;;5072405;28;20229;-83
2022/05/31 12:24:34;;;;;;;1.02;0.88;;;;;;;;;;5080009;28;20788;-81
2022/05/31 12:27:05;;;;;;;1.98;1.10;;;;;;;;;;5074832;28;20241;-83
2022/05/31 12:29:34;;;;;;;1.00;1.00;;;;;;;;;;5080146;28;20223;-83
2022/05/31 12:32:19;;;;;;;2.10;1.33;;;;;;;;;;5073755;28;20248;-88
2022/05/31 12:34:46;;;;;;;1.05;0.95;;;;;;;;;;5072698;28;20216;-89
2022/05/31 12:37:21;;;;;;;1.65;1.05;;;;;;;;;;5058561;28;20206;-88
2022/05/31 12:39:50;;;;;;;1.20;1.10;;;;;;;;;;5053003;28;20584;-87
2022/05/31 12:42:32;;;;;;;1.45;1.20;;;;;;;;;;5053414;28;20621;-87
2022/05/31 12:45:14;;;;;;;2.10;1.30;;;;;;;;;;5048998;28;20237;-87
2022/05/31 12:47:41;;;;;;;3.15;1.17;;;;;;;;;;5052770;28;20198;-90
2022/05/31 12:50:10;;;;;;;0.88;0.85;;;;;;;;;;5052576;28;20238;-91
2022/05/31 12:55:51;;;;;;;2.38;1.02;;;;;;;;;;5052538;28;20240;-87
2022/05/31 12:58:34;;;;;;;3.95;1.40;;;;;;;;;;5052896;28;20213;-84
2022/05/31 13:01:06;;;;;;;2.05;1.00;;;;;;;;;;5064019;28;20221;-87
2022/05/31 13:03:52;;;;;;;0.90;0.90;;;;;;;;;;5053891;28;20229;-83
2022/05/31 13:06:23;;;;;;;1.23;0.93;;;;;;;;;;5070401;28;20244;-84
2022/05/31 13:08:55;;;;;;;2.38;0.95;;;;;;;;;;5069826;28;20210;-84
2022/05/31 13:20:00;;;;;;;3.50;1.30;;;;;;;;;;5052378;28;20576;-83
2022/05/31 13:22:31;;;;;;;2.97;1.00;;;;;;;;;;5087143;28;20225;-83
2022/05/31 13:25:02;;;;;;;1.88;1.30;;;;;;;;;;5093785;28;20181;-83
2022/05/31 13:27:31;;;;;;;1.27;1.05;;;;;;;;;;5094205;28;20203;-83
2022/05/31 13:30:02;;;;;;;1.42;0.88;;;;;;;;;;5092895;28;20205;-83
2022/05/31 13:32:32;;;;;;;3.13;1.00;;;;;;;;;;5099464;28;20285;-85
2022/05/31 13:34:59;;;;;;;3.53;1.10;;;;;;;;;;5092687;28;20241;-84
2022/05/31 13:37:26;;;;;;;0.70;0.70;;;;;;;;;;5094006;28;20591;-86
2022/05/31 13:39:53;;;;;;;1.63;1.15;;;;;;;;;;5093559;28;20208;-84
2022/05/31 13:45:07;;;;;;;2.38;1.27;;;;;;;;;;5093137;28;20236;-84
2022/05/31 13:47:35;;;;;;;1.05;1.00;;;;;;;;;;5099630;28;20203;-83
2022/05/31 13:50:07;;;;;;;3.65;1.30;;;;;;;;;;5098334;28;20262;-85
2022/05/31 13:52:34;;;;;;;2.45;1.20;;;;;;;;;;5098656;28;20224;-83
2022/05/31 13:55:09;;;;;;;1.45;1.33;;;;;;;;;;5097343;28;20243;-84
2022/05/31 13:57:37;;;;;;;1.17;0.90;;;;;;;;;;5099846;28;20214;-83
2022/05/31 14:00:07;;;;;;;1.80;1.00;;;;;;;;;;5102876;28;20232;-84
2022/05/31 14:05:20;;;;;;;1.77;1.20;;;;;;;;;;5102431;28;20235;-83
2022/05/31 14:07:48;;;;;;;1.42;1.13;;;;;;;;;;5102974;28;20267;-83
2022/05/31 14:10:17;;;;;;;1.38;1.13;;;;;;;;;;5101353;28;20241;-83
2022/05/31 14:12:45;;;;;;;1.60;1.10;;;;;;;;;;5103426;28;20258;-83
2022/05/31 14:15:23;;;;;;;1.77;1.15;;;;;;;;;;5103824;28;20232;-83
2022/05/31 14:17:50;;;;;;;2.05;1.20;;;;;;;;;;5104934;28;20212;-84
2022/05/31 14:20:25;;;;;;;4.35;1.25;;;;;;;;;;5106350;28;20228;-81
2022/05/31 14:22:52;;;;;;;2.35;1.05;;;;;;;;;;5106056;28;20220;-84
2022/05/31 14:25:23;;;;;;;3.25;1.38;;;;;;;;;;5104539;28;20228;-80
2022/05/31 14:27:52;;;;;;;1.65;1.40;;;;;;;;;;5104855;28;20201;-81
2022/05/31 14:30:30;;;;;;;2.60;1.20;;;;;;;;;;5100112;28;20232;-80
2022/05/31 14:33:01;;;;;;;1.98;1.25;;;;;;;;;;5099896;28;20228;-79
2022/05/31 14:35:31;;;;;;;2.10;1.42;;;;;;;;;;5068318;28;20690;-82
2022/05/31 14:37:58;;;;;;;1.42;1.10;;;;;;;;;;5068503;28;20635;-80
2022/05/31 14:40:27;;;;;;;1.48;1.15;;;;;;;;;;5078662;28;20289;-80
2022/05/31 14:43:04;;;;;;;1.05;1.00;;;;;;;;;;5081257;28;20225;-80
2022/05/31 14:45:32;;;;;;;1.55;1.20;;;;;;;;;;5080753;28;20233;-81
2022/05/31 14:48:14;;;;;;;4.63;1.10;;;;;;;;;;5079254;28;20224;-80
2022/05/31 14:50:41;;;;;;;1.80;1.50;;;;;;;;;;5078057;28;20229;-81
2022/05/31 14:53:16;;;;;;;1.83;1.00;;;;;;;;;;5077491;28;20232;-82
2022/05/31 14:55:44;;;;;;;3.85;1.10;;;;;;;;;;5077736;28;20251;-84
2022/05/31 15:01:10;;;;;;;3.47;1.13;;;;;;;;;;5079259;28;20320;-85
2022/05/31 15:03:40;;;;;;;2.90;1.00;;;;;;;;;;5074356;28;20217;-84
2022/05/31 15:06:08;;;;;;;2.75;1.30;;;;;;;;;;5057778;28;20260;-83
2022/05/31 15:08:36;;;;;;;1.45;1.20;;;;;;;;;;5071942;28;20209;-84
2022/05/31 15:19:36;;;;;;;1.77;1.10;;;;;;;;;;5074761;28;20185;-84
2022/05/31 15:22:05;;;;;;;82.53;9.70;;;;;;;;;;5074376;28;20237;-87
2022/05/31 15:24:33;;;;;;;4.70;1.50;;;;;;;;;;5075570;28;20197;-88
2022/05/31 15:27:01;;;;;;;2.30;1.20;;;;;;;;;;5074733;28;20221;-88
2022/05/31 15:29:29;;;;;;;2.58;1.30;;;;;;;;;;5075054;28;20205;-88
2022/05/31 15:31:56;;;;;;;1.40;1.02;;;;;;;;;;5073836;28;20233;-84
2022/05/31 15:34:23;;;;;;;0.95;0.95;;;;;;;;;;5073850;28;20217;-84
2022/05/31 15:36:51;;;;;;;2.28;1.33;;;;;;;;;;5073052;28;20283;-84
2022/05/31 15:39:18;;;;;;;1.63;1.23;;;;;;;;;;5074214;28;20209;-83
2022/05/31 15:41:45;;;;;;;0.93;0.90;;;;;;;;;;5073528;28;20240;-84
2022/05/31 15:44:12;;;;;;;4.15;1.58;;;;;;;;;;5073921;28;20225;-85
2022/05/31 15:46:43;;;;;;;1.67;1.20;;;;;;;;;;5074410;28;20244;-84
2022/05/31 15:49:12;;;;;;;1.92;1.33;;;;;;;;;;5063809;28;20265;-85
2022/05/31 15:51:42;;;;;;;2.28;1.05;;;;;;;;;;5075775;28;20253;-85
2022/05/31 15:54:13;;;;;;;2.33;1.20;;;;;;;;;;5075652;28;20233;-85